Time;durP1;ratioP1;P1;durP2;ratioP2;P2;SDS_P1;SDS_P2;PMS_P1;PMS_P2;Temp;Humidity;BMP_temperature;BMP_pressure;BME280_temperature;BME280_humidity;BME280_pressure;Samples;Min_cycle;Max_cycle;Signal;HPM_P1;HPM_P2
2022/05/28 00:00:20;;;;;;;4.00;0.90;;;;;;;9.78;86.99;100137.69;5166127;56;1136897;-76
2022/05/28 00:05:29;;;;;;;1.77;1.00;;;;;;;9.69;87.59;100119.95;5129884;56;1136894;-74
2022/05/28 00:10:35;;;;;;;12.80;1.30;;;;;;;9.62;88.07;100110.86;5131577;56;1136942;-75
2022/05/28 00:15:44;;;;;;;3.37;1.00;;;;;;;9.58;87.44;100112.91;5133657;56;1139089;-75
2022/05/28 00:20:50;;;;;;;5.03;1.40;;;;;;;9.53;87.98;100107.14;5133338;57;1136959;-75
2022/05/28 00:25:56;;;;;;;4.87;0.80;;;;;;;9.49;88.88;100110.98;5133491;57;1137103;-76
2022/05/28 00:31:02;;;;;;;6.07;0.87;;;;;;;9.36;89.59;100099.23;5133299;56;1136945;-75
2022/05/28 00:36:10;;;;;;;4.90;1.17;;;;;;;9.39;89.01;100100.32;5133416;57;1136961;-74
2022/05/28 00:41:15;;;;;;;3.97;0.87;;;;;;;9.38;89.34;100101.28;5190128;56;1136925;-74
2022/05/28 00:46:25;;;;;;;4.77;0.93;;;;;;;9.33;90.01;100091.55;5219076;56;1137056;-75
2022/05/28 00:51:34;;;;;;;1.90;0.60;;;;;;;9.34;90.15;100095.88;5218942;56;1136941;-74
2022/05/28 00:56:41;;;;;;;5.57;0.73;;;;;;;9.31;90.67;100090.87;5196865;56;1136957;-75
2022/05/28 01:01:46;;;;;;;5.73;0.80;;;;;;;9.27;90.74;100089.42;5151617;56;1136957;-77
2022/05/28 01:07:26;;;;;;;1.53;0.77;;;;;;;9.26;90.70;100079.83;5128984;57;1136955;-76
2022/05/28 01:12:41;;;;;;;5.00;0.90;;;;;;;9.26;90.49;100076.34;5128712;57;1136916;-76
2022/05/28 01:17:51;;;;;;;4.50;0.60;;;;;;;9.25;90.48;100083.42;5124282;57;1136972;-74
2022/05/28 01:23:23;;;;;;;5.47;1.10;;;;;;;9.31;90.01;100083.43;5127852;57;1137026;-76
2022/05/28 01:28:35;;;;;;;1.43;0.70;;;;;;;9.34;90.01;100078.72;5128888;57;1137055;-73
2022/05/28 01:33:43;;;;;;;5.10;1.27;;;;;;;9.39;89.30;100084.97;5128836;57;1136975;-76
2022/05/28 01:38:50;;;;;;;7.23;1.00;;;;;;;9.36;88.95;100080.77;5145156;56;1136953;-75
2022/05/28 01:43:58;;;;;;;2.67;0.80;;;;;;;9.36;88.95;100080.77;5189294;56;1135036;-77
2022/05/28 01:49:04;;;;;;;1.73;0.63;;;;;;;9.29;88.50;100069.03;5219749;56;1134829;-76
2022/05/28 01:54:14;;;;;;;3.43;1.00;;;;;;;9.22;89.10;100069.14;5219458;56;1134844;-76
2022/05/28 01:59:25;;;;;;;8.77;1.23;;;;;;;9.13;89.62;100072.05;5163478;56;1135149;-74
2022/05/28 02:04:32;;;;;;;2.43;0.83;;;;;;;9.04;89.62;100063.52;5137648;56;1135113;-75
2022/05/28 02:09:43;;;;;;;2.30;0.50;;;;;;;8.96;90.91;100059.34;5129312;57;1135406;-74
2022/05/28 02:15:15;;;;;;;1.43;0.70;;;;;;;8.89;91.40;100052.01;5129609;57;1134873;-76
2022/05/28 02:20:27;;;;;;;1.90;0.60;;;;;;;8.86;91.54;100050.44;5071582;57;1134938;-76
2022/05/28 02:25:39;;;;;;;2.27;0.83;;;;;;;8.80;91.52;100052.26;5130835;57;1133390;-73
2022/05/28 02:30:53;;;;;;;4.77;1.03;;;;;;;8.73;91.83;100043.13;5131668;57;1136988;-74
2022/05/28 02:35:59;;;;;;;3.87;0.90;;;;;;;8.71;92.51;100047.20;5131657;57;1137366;-74
2022/05/28 02:41:05;;;;;;;2.23;0.63;;;;;;;8.69;91.53;100046.98;5187487;56;1137173;-74
2022/05/28 02:46:12;;;;;;;3.47;1.00;;;;;;;8.62;92.11;100043.97;5221445;56;1136970;-74
2022/05/28 02:51:21;;;;;;;4.70;1.00;;;;;;;8.60;91.90;100052.95;5221755;56;1137025;-74
2022/05/28 02:56:27;;;;;;;1.27;0.63;;;;;;;8.54;91.32;100048.16;5194367;56;1137169;-76
2022/05/28 03:01:35;;;;;;;1.77;0.70;;;;;;;8.51;91.87;100048.39;5138009;57;1137223;-76
2022/05/28 03:06:41;;;;;;;3.17;0.70;;;;;;;8.52;92.17;100048.75;5190758;57;1137051;-74
2022/05/28 03:11:47;;;;;;;2.90;1.33;;;;;;;8.52;92.50;100037.73;5190854;57;1136957;-76
2022/05/28 03:16:53;;;;;;;7.63;0.90;;;;;;;8.59;92.09;100034.97;5190753;57;1136960;-74
2022/05/28 03:21:59;;;;;;;4.42;1.07;;;;;;;8.65;91.53;100035.83;5190659;57;1137054;-76
2022/05/28 03:27:06;;;;;;;2.43;0.83;;;;;;;8.68;91.67;100039.55;5190830;57;1136943;-76
2022/05/28 03:32:12;;;;;;;2.03;0.93;;;;;;;8.74;91.41;100047.45;5199579;56;1136923;-76
2022/05/28 03:37:17;;;;;;;4.40;1.30;;;;;;;8.77;91.38;100040.63;5204531;56;1136786;-75
2022/05/28 03:42:23;;;;;;;0.83;0.83;;;;;;;8.79;90.99;100039.55;5212257;56;1136914;-76
2022/05/28 03:47:31;;;;;;;7.13;1.63;;;;;;;8.80;91.01;100037.27;5214587;56;1137041;-74
2022/05/28 03:52:36;;;;;;;5.03;1.70;;;;;;;8.82;90.61;100042.43;5158738;56;1137065;-75
2022/05/28 03:57:42;;;;;;;8.50;1.87;;;;;;;8.84;89.99;100041.84;5202650;56;1137230;-75
2022/05/28 04:02:48;;;;;;;7.67;1.40;;;;;;;8.81;89.98;100045.55;5185519;56;1137307;-73
2022/05/28 04:07:54;;;;;;;5.93;1.77;;;;;;;8.82;89.70;100042.43;5135601;56;1136811;-75
2022/05/28 04:12:59;;;;;;;8.43;1.63;;;;;;;8.80;90.36;100046.50;5135698;56;1136954;-74
2022/05/28 04:18:07;;;;;;;12.03;1.07;;;;;;;8.80;90.43;100043.03;5135478;56;1136951;-76
2022/05/28 04:23:13;;;;;;;4.80;1.40;;;;;;;8.80;90.22;100037.75;5135695;56;1139061;-75
2022/05/28 04:28:19;;;;;;;3.03;0.70;;;;;;;8.77;90.28;100039.30;5135726;56;1136961;-75
2022/05/28 04:33:25;;;;;;;5.80;1.23;;;;;;;8.77;90.45;100037.98;5135672;56;1137093;-75
2022/05/28 04:38:31;;;;;;;4.47;1.50;;;;;;;8.72;90.29;100040.13;5145232;56;1136916;-75
2022/05/28 04:43:37;;;;;;;2.40;0.97;;;;;;;8.76;90.53;100043.73;5221368;56;1137072;-76
2022/05/28 04:48:43;;;;;;;7.90;1.53;;;;;;;8.75;90.42;100031.98;5221378;56;1136950;-74
2022/05/28 04:53:48;;;;;;;8.43;1.80;;;;;;;8.74;90.39;100035.58;5221215;56;1136935;-75
2022/05/28 04:58:55;;;;;;;5.10;1.40;;;;;;;8.73;90.83;100039.17;5152760;56;1136931;-74
2022/05/28 05:04:01;;;;;;;4.33;1.23;;;;;;;8.76;90.39;100029.23;5135423;57;1136968;-74
2022/05/28 05:09:07;;;;;;;7.53;1.55;;;;;;;8.77;90.61;100021.69;5135370;57;1136935;-74
2022/05/28 05:14:13;;;;;;;6.27;1.20;;;;;;;8.81;89.96;100020.50;5135380;57;1136983;-75
2022/05/28 05:19:19;;;;;;;9.98;1.55;;;;;;;8.88;89.37;100010.29;5157355;56;1137178;-75
2022/05/28 05:24:25;;;;;;;7.10;1.47;;;;;;;8.97;88.71;100006.95;5155872;56;1137205;-75
2022/05/28 05:29:32;;;;;;;8.10;1.17;;;;;;;9.17;88.68;100007.50;5155582;56;1137002;-75
2022/05/28 05:34:38;;;;;;;8.50;2.10;;;;;;;9.26;87.42;100003.30;5154729;56;1137185;-73
2022/05/28 05:39:44;;;;;;;6.87;1.27;;;;;;;9.33;86.45;99997.88;5163799;56;1134866;-75
2022/05/28 05:44:49;;;;;;;6.73;1.10;;;;;;;9.36;86.05;99994.99;5130865;57;1132995;-74
2022/05/28 05:49:55;;;;;;;7.22;1.27;;;;;;;9.34;86.38;99994.27;5118206;57;1132853;-76
2022/05/28 05:55:01;;;;;;;7.23;1.40;;;;;;;9.35;85.54;99997.27;5058630;57;1132954;-76
2022/05/28 06:00:08;;;;;;;9.10;2.33;;;;;;;9.38;86.30;99997.03;5058931;57;1133084;-75
2022/05/28 06:05:14;;;;;;;7.07;0.90;;;;;;;9.45;84.91;99996.91;5058685;58;1132821;-75
2022/05/28 06:10:20;;;;;;;5.53;1.60;;;;;;;9.57;85.12;99993.73;5005683;58;1132835;-75
2022/05/28 06:15:26;;;;;;;5.00;1.50;;;;;;;9.67;84.68;99992.02;4978674;59;1132967;-76
2022/05/28 06:20:31;;;;;;;5.87;1.80;;;;;;;9.84;84.01;99986.18;5066770;58;1132836;-75
2022/05/28 06:25:39;;;;;;;10.87;3.23;;;;;;;10.05;81.10;99984.05;5065472;58;1132872;-74
2022/05/28 06:30:47;;;;;;;5.03;1.37;;;;;;;10.29;80.21;99978.03;5061380;58;1136900;-76
2022/05/28 06:35:58;;;;;;;2.23;0.90;;;;;;;10.23;77.62;99976.73;4986583;59;1135002;-75
2022/05/28 06:41:05;;;;;;;3.33;1.07;;;;;;;10.05;78.17;99976.95;5050926;58;1134886;-75
2022/05/28 06:46:11;;;;;;;4.80;1.30;;;;;;;10.07;79.11;99978.99;4985826;59;1134906;-76
2022/05/28 06:51:17;;;;;;;4.83;1.20;;;;;;;10.10;77.44;99964.66;5069666;58;1134882;-74
2022/05/28 06:56:23;;;;;;;3.37;1.23;;;;;;;10.11;78.78;99971.14;5046322;58;1135004;-75
2022/05/28 07:01:29;;;;;;;8.60;1.40;;;;;;;10.23;78.33;99970.64;5142155;57;1132818;-76
2022/05/28 07:06:36;;;;;;;5.07;1.67;;;;;;;10.33;78.31;99973.33;5068523;57;1132886;-75
2022/05/28 07:11:41;;;;;;;1.47;0.60;;;;;;;10.34;76.79;99978.48;5133209;57;1137215;-75
2022/05/28 07:16:47;;;;;;;5.60;1.57;;;;;;;10.46;76.79;99960.25;5081293;57;1144752;-76
2022/05/28 07:21:53;;;;;;;6.73;1.43;;;;;;;10.47;76.05;99955.31;5067983;57;1137113;-76
2022/05/28 07:26:59;;;;;;;6.30;1.50;;;;;;;10.43;77.58;99972.40;5067675;57;1136971;-75
2022/05/28 07:32:06;;;;;;;7.63;1.20;;;;;;;10.42;78.94;99973.37;5061945;57;1137232;-75
2022/05/28 07:37:12;;;;;;;6.40;1.20;;;;;;;10.23;84.86;99973.28;5085290;57;1136952;-75
2022/05/28 07:42:17;;;;;;;3.03;1.17;;;;;;;9.90;86.92;99966.84;5121417;57;1137503;-76
2022/05/28 07:47:23;;;;;;;3.90;1.37;;;;;;;9.87;88.14;99962.16;5119990;57;1134777;-74
2022/05/28 07:52:30;;;;;;;2.33;0.90;;;;;;;10.09;88.21;99954.57;5095929;57;1135097;-75
2022/05/28 07:57:35;;;;;;;1.33;1.20;;;;;;;10.40;85.57;99961.24;5121091;57;1136976;-76
2022/05/28 08:02:41;;;;;;;3.87;1.00;;;;;;;10.64;83.61;99948.57;5113858;57;1136991;-75
2022/05/28 08:07:47;;;;;;;4.50;1.00;;;;;;;10.82;80.57;99935.06;5123028;57;1137050;-75
2022/05/28 08:12:53;;;;;;;3.63;0.97;;;;;;;10.88;76.95;99938.48;5128852;57;1137233;-74
2022/05/28 08:17:59;;;;;;;5.30;0.87;;;;;;;10.77;78.16;99939.08;5128806;57;1136970;-74
2022/05/28 08:23:10;;;;;;;9.37;1.03;;;;;;;10.72;77.12;99947.89;5128912;57;1137003;-74
2022/05/28 08:28:19;;;;;;;0.73;0.53;;;;;;;10.67;76.62;99949.63;5083165;57;1137076;-74
2022/05/28 08:33:25;;;;;;;2.23;1.00;;;;;;;10.66;78.24;99969.59;5098647;57;1137011;-75
2022/05/28 08:38:31;;;;;;;3.80;1.00;;;;;;;10.62;79.99;99978.27;5093583;57;1136995;-77
2022/05/28 08:43:42;;;;;;;2.27;0.80;;;;;;;10.71;79.06;99968.20;5128970;57;1137364;-77
2022/05/28 08:48:54;;;;;;;5.27;1.10;;;;;;;10.78;79.79;99968.52;5128947;57;1137010;-74
2022/05/28 08:54:25;;;;;;;9.27;0.77;;;;;;;10.93;78.70;99968.51;5087473;57;1136961;-77
2022/05/28 08:59:53;;;;;;;23.47;20.67;;;;;;;10.97;76.31;99970.41;4986532;58;1137328;-77
2022/05/28 09:05:01;;;;;;;52.97;38.83;;;;;;;11.00;77.77;99967.50;4926209;59;1141068;-77
2022/05/28 09:10:10;;;;;;;6.73;3.77;;;;;;;11.15;76.07;99970.91;4914964;59;1141362;-75
2022/05/28 09:15:15;;;;;;;4.15;1.05;;;;;;;11.28;73.53;99973.34;4993979;58;1137317;-75
2022/05/28 09:20:27;;;;;;;12.27;7.30;;;;;;;11.38;73.56;99974.66;5022378;57;1136868;-76
2022/05/28 09:25:37;;;;;;;6.97;2.87;;;;;;;11.40;74.00;99979.34;5042351;58;1137259;-75
2022/05/28 09:31:14;;;;;;;1.23;0.90;;;;;;;11.35;73.27;99973.61;5142156;57;1135147;-75
2022/05/28 09:36:44;;;;;;;5.50;1.13;;;;;;;11.24;71.24;99972.77;5045893;58;1134946;-76
2022/05/28 09:42:11;;;;;;;4.47;0.93;;;;;;;11.08;73.50;99976.42;5054238;58;1135159;-76
2022/05/28 09:47:18;;;;;;;6.03;2.00;;;;;;;10.87;77.48;100010.04;5027926;57;1137139;-75
2022/05/28 09:52:29;;;;;;;2.30;1.20;;;;;;;10.51;83.57;100014.91;5039460;57;1139088;-75
2022/05/28 09:57:46;;;;;;;4.67;1.20;;;;;;;10.11;88.85;99998.88;4978005;58;1139061;-74
2022/05/28 10:08:33;;;;;;;4.60;0.95;;;;;;;10.36;92.51;99988.45;5129583;57;1136980;-73
2022/05/28 10:13:50;;;;;;;7.50;1.57;;;;;;;10.56;89.41;99992.84;5117410;57;1137101;-74
2022/05/28 10:18:59;;;;;;;3.83;1.03;;;;;;;10.68;87.07;99990.98;5123218;57;1136985;-74
2022/05/28 10:24:16;;;;;;;3.07;1.13;;;;;;;10.76;80.42;99983.20;5117524;57;1137555;-74
2022/05/28 10:29:41;;;;;;;2.37;1.60;;;;;;;10.88;80.85;99996.68;5063070;57;1137006;-73
2022/05/28 10:34:48;;;;;;;7.10;1.40;;;;;;;11.07;77.87;99979.20;5054537;58;1137072;-73
2022/05/28 10:40:08;;;;;;;7.13;1.70;;;;;;;11.35;78.47;99974.93;5086511;57;1137020;-73
2022/05/28 10:45:21;;;;;;;4.03;0.70;;;;;;;11.66;73.20;99958.44;5137170;57;1137139;-73
2022/05/28 10:50:59;;;;;;;3.13;1.20;;;;;;;12.04;71.53;99943.88;5142585;57;1136935;-73
2022/05/28 10:56:48;;;;;;;2.97;0.80;;;;;;;12.18;69.61;99951.38;5121140;57;1134885;-73
2022/05/28 11:02:15;;;;;;;6.70;1.13;;;;;;;12.06;68.27;99949.04;5123093;57;1134907;-74
2022/05/28 11:07:28;;;;;;;2.30;0.60;;;;;;;11.86;67.56;99962.31;5034252;57;1132776;-73
2022/05/28 11:13:10;;;;;;;7.22;2.17;;;;;;;11.77;67.88;99967.11;5138229;57;1136936;-74
2022/05/28 11:18:54;;;;;;;1.73;1.00;;;;;;;11.74;70.29;99983.77;5128034;57;1136980;-74
2022/05/28 11:24:28;;;;;;;2.87;0.87;;;;;;;11.68;69.72;99989.12;5134303;57;1136967;-74
2022/05/28 11:29:50;;;;;;;3.08;1.47;;;;;;;11.73;69.71;99990.03;5112220;57;1136887;-74
2022/05/28 11:35:18;;;;;;;3.03;1.43;;;;;;;11.83;70.13;99987.75;5120583;57;1136942;-74
2022/05/28 11:40:34;;;;;;;5.40;1.10;;;;;;;11.89;68.97;99986.37;5131931;57;1137094;-74
2022/05/28 11:45:47;;;;;;;5.90;2.40;;;;;;;11.90;70.35;99988.88;5057263;58;1136927;-73
2022/05/28 11:51:28;;;;;;;;;;;;;;;11.90;71.33;99990.70;5067186;57;1136987;-73
2022/05/28 11:56:34;;;;;;;5.57;1.00;;;;;;;11.86;74.65;100014.47;5062728;58;972229;-74
2022/05/28 12:01:56;;;;;;;2.63;0.80;;;;;;;11.58;80.03;100042.09;5142499;57;1134893;-73
2022/05/28 12:07:33;;;;;;;2.63;1.10;;;;;;;11.23;84.66;100050.50;5046382;58;1136988;-73
2022/05/28 12:13:01;;;;;;;0.83;0.60;;;;;;;10.78;88.64;100057.98;5126838;57;1134886;-73
2022/05/28 12:18:22;;;;;;;2.92;1.00;;;;;;;10.48;91.59;100057.94;5129061;57;1139094;-73
2022/05/28 12:23:35;;;;;;;4.23;1.33;;;;;;;10.33;94.29;100065.84;5118880;57;1138998;-73
2022/05/28 12:28:49;;;;;;;;;;;;;;;10.26;96.01;100073.91;5108131;57;1139089;-73
2022/05/28 12:33:58;;;;;;;1.53;0.93;;;;;;;10.18;98.68;100083.33;5093404;57;976449;-73
2022/05/28 12:39:09;;;;;;;7.50;1.70;;;;;;;10.08;100.00;100091.61;5074875;57;1136939;-73
2022/05/28 12:44:24;;;;;;;5.17;1.07;;;;;;;9.93;100.00;100090.23;5092894;57;1141095;-73
2022/05/28 12:49:40;;;;;;;3.00;0.97;;;;;;;9.88;100.00;100088.47;5047059;57;1138937;-70
2022/05/28 12:54:48;;;;;;;0.90;0.70;;;;;;;9.83;100.00;100080.91;5013722;58;1139330;-71
2022/05/28 13:00:07;;;;;;;1.90;0.80;;;;;;;9.88;100.00;100076.09;5015362;58;1139154;-70
2022/05/28 13:05:32;;;;;;;5.07;0.70;;;;;;;9.96;100.00;100082.53;5011915;58;1139065;-73
2022/05/28 13:10:54;;;;;;;1.73;0.87;;;;;;;10.00;100.00;100078.20;5021085;58;1139065;-76
2022/05/28 13:16:19;;;;;;;15.60;3.77;;;;;;;10.05;100.00;100069.43;5085581;57;1141117;-75
2022/05/28 13:21:54;;;;;;;10.40;2.37;;;;;;;10.07;100.00;100071.95;5070571;57;1141154;-75
2022/05/28 13:27:09;;;;;;;3.47;1.50;;;;;;;9.98;100.00;100081.45;4966681;58;1141421;-79
2022/05/28 13:32:19;;;;;;;6.33;2.70;;;;;;;9.94;100.00;100094.55;5019303;58;1137237;-76
2022/05/28 13:37:25;;;;;;;8.80;3.22;;;;;;;9.91;100.00;100094.82;5026248;59;1137134;-73
2022/05/28 13:42:33;;;;;;;2.83;1.40;;;;;;;9.89;100.00;100090.14;4995119;59;1137201;-73
2022/05/28 13:47:41;;;;;;;12.13;2.00;;;;;;;10.25;100.00;100094.70;5022707;58;1137172;-71
2022/05/28 13:52:48;;;;;;;4.83;1.40;;;;;;;10.63;100.00;100085.73;4898873;60;1141270;-69
2022/05/28 13:57:54;;;;;;;5.80;1.77;;;;;;;11.05;100.00;100081.21;4881344;59;1137205;-72
2022/05/28 14:03:06;;;;;;;3.23;1.77;;;;;;;11.26;100.00;100081.17;4955380;59;1137014;-71
2022/05/28 14:08:34;;;;;;;10.83;1.90;;;;;;;11.29;100.00;100084.87;5144763;57;1141101;-73
2022/05/28 14:13:48;;;;;;;7.23;2.33;;;;;;;11.27;100.00;100081.04;5055650;58;1143269;-69
2022/05/28 14:18:57;;;;;;;8.23;1.40;;;;;;;11.18;100.00;100091.08;4950135;59;1141157;-70
2022/05/28 14:24:41;;;;;;;5.80;1.43;;;;;;;11.21;100.00;100089.98;5114390;57;1141080;-72
2022/05/28 14:29:50;;;;;;;9.90;1.33;;;;;;;11.32;100.00;100079.77;5116207;57;1141133;-71
2022/05/28 14:34:57;;;;;;;10.17;1.23;;;;;;;11.61;100.00;100085.98;5173495;56;1141154;-76
2022/05/28 14:40:04;;;;;;;6.77;1.20;;;;;;;11.92;100.00;100091.58;5187808;56;1143160;-77
2022/05/28 14:45:25;;;;;;;1.47;0.90;;;;;;;12.12;100.00;100084.97;5143402;56;1141349;-75
2022/05/28 14:50:48;;;;;;;3.97;1.17;;;;;;;12.06;100.00;100086.88;5145815;56;1141106;-74
2022/05/28 14:55:53;;;;;;;5.03;1.30;;;;;;;12.00;100.00;100081.63;5061901;57;1141467;-79
2022/05/28 15:01:09;;;;;;;5.40;2.03;;;;;;;12.15;100.00;100081.56;5139686;57;1140552;-76
2022/05/28 15:06:28;;;;;;;3.17;1.37;;;;;;;12.57;99.85;100075.44;5127661;57;1141220;-81
2022/05/28 15:11:37;;;;;;;3.23;1.07;;;;;;;12.80;97.03;100078.61;5091197;57;1139076;-76
2022/05/28 15:16:43;;;;;;;4.73;1.13;;;;;;;12.89;93.40;100086.19;5066871;57;1137017;-74
2022/05/28 15:21:49;;;;;;;6.23;1.10;;;;;;;12.93;90.37;100070.33;5123866;57;1137015;-79
2022/05/28 15:26:55;;;;;;;10.93;1.67;;;;;;;12.91;90.05;100073.12;5129884;57;1136980;-78
2022/05/28 15:32:02;;;;;;;30.50;3.23;;;;;;;12.97;91.36;100072.56;5122009;56;1139074;-78
2022/05/28 15:42:39;;;;;;;12.68;3.42;;;;;;;13.02;92.16;100083.56;5141633;57;1136815;-78
2022/05/28 15:47:46;;;;;;;5.37;2.53;;;;;;;12.94;91.06;100076.83;5142386;57;1139038;-71
2022/05/28 15:52:52;;;;;;;14.23;2.10;;;;;;;12.92;90.98;100080.59;5142175;57;1136984;-74
2022/05/28 15:58:10;;;;;;;12.37;1.87;;;;;;;12.94;91.18;100077.31;5132153;57;1139017;-73
2022/05/28 16:03:15;;;;;;;39.67;13.03;;;;;;;12.95;89.54;100073.19;5126098;57;1139127;-74
2022/05/28 16:13:35;;;;;;;136.37;85.17;;;;;;;13.06;88.40;100080.62;5126276;57;1139370;-73
2022/05/28 16:18:45;;;;;;;27.07;18.97;;;;;;;13.14;89.32;100078.09;5125469;57;1145430;-72
2022/05/28 16:23:51;;;;;;;6.80;2.10;;;;;;;13.21;88.28;100079.19;5120505;56;1143524;-72
2022/05/28 16:28:59;;;;;;;11.80;2.10;;;;;;;13.26;88.21;100075.13;5081095;57;1139204;-70
2022/05/28 16:34:05;;;;;;;6.57;3.23;;;;;;;13.34;86.91;100092.48;5109664;56;1141108;-75
2022/05/28 16:39:14;;;;;;;13.67;2.90;;;;;;;13.37;86.37;100090.02;5133281;56;1139018;-74
2022/05/28 16:44:21;;;;;;;21.63;5.23;;;;;;;13.31;86.17;100099.41;5142185;56;1141110;-70
2022/05/28 16:49:27;;;;;;;5.83;3.60;;;;;;;13.19;88.25;100107.70;5142317;57;1141280;-74
2022/05/28 16:54:33;;;;;;;5.53;2.47;;;;;;;12.77;92.73;100122.69;5142142;57;1139055;-73
2022/05/28 16:59:38;;;;;;;27.40;4.00;;;;;;;12.31;93.83;100127.40;5142152;57;1139115;-73
2022/05/28 17:04:44;;;;;;;4.80;2.10;;;;;;;12.06;97.36;100123.49;5142035;57;1141138;-75
2022/05/28 17:09:50;;;;;;;94.33;8.93;;;;;;;11.96;97.00;100119.48;5142142;57;1139079;-70
2022/05/28 17:14:56;;;;;;;13.73;1.80;;;;;;;11.94;96.99;100116.62;5142065;57;1141214;-73
2022/05/28 17:20:04;;;;;;;60.20;5.97;;;;;;;11.92;97.89;100119.89;5141873;57;1141133;-71
2022/05/28 17:25:30;;;;;;;17.97;3.43;;;;;;;11.95;98.17;100119.14;5141894;57;1141213;-72
2022/05/28 17:30:40;;;;;;;16.63;2.73;;;;;;;11.99;97.47;100123.68;5063386;57;1141466;-72
2022/05/28 17:35:46;;;;;;;97.93;11.70;;;;;;;12.01;97.36;100127.52;5023334;58;1141039;-74
2022/05/28 17:40:52;;;;;;;9.60;1.83;;;;;;;12.03;97.17;100123.77;5120622;56;1143177;-70
2022/05/28 17:45:58;;;;;;;8.90;3.90;;;;;;;12.06;96.68;100124.82;5155312;56;1138962;-72
2022/05/28 17:51:05;;;;;;;16.53;3.80;;;;;;;12.08;96.72;100125.48;5151854;57;1139118;-74
2022/05/28 17:56:10;;;;;;;9.83;2.97;;;;;;;12.11;96.04;100130.52;5158413;57;1141276;-73
2022/05/28 18:01:21;;;;;;;5.20;2.33;;;;;;;12.13;95.67;100138.34;5114635;57;1139230;-74
2022/05/28 18:06:26;;;;;;;12.10;3.77;;;;;;;12.14;94.75;100142.67;5071666;58;1138960;-76
2022/05/28 18:11:32;;;;;;;2.77;0.90;;;;;;;12.13;94.78;100193.53;5071955;57;1141096;-72
2022/05/28 18:16:43;;;;;;;4.07;2.40;;;;;;;11.79;98.89;100207.59;5072319;57;1139071;-74
2022/05/28 18:21:49;;;;;;;3.27;1.93;;;;;;;11.46;98.49;100194.10;5067445;57;1139289;-75
2022/05/28 18:26:56;;;;;;;10.83;9.70;;;;;;;11.18;100.00;100217.30;5051280;57;1139000;-74
2022/05/28 18:32:01;;;;;;;4.30;2.70;;;;;;;10.96;100.00;100216.97;4991004;59;1143558;-73
2022/05/28 18:37:08;;;;;;;5.93;2.40;;;;;;;10.77;100.00;100229.56;5008898;58;1141022;-71
2022/05/28 18:42:22;;;;;;;18.57;13.27;;;;;;;10.67;100.00;100222.52;5030498;58;1141232;-70
2022/05/28 18:47:28;;;;;;;14.47;7.40;;;;;;;10.56;100.00;100223.38;5127211;57;1143299;-72
2022/05/28 18:52:33;;;;;;;7.43;4.00;;;;;;;10.51;100.00;100223.78;5067754;58;1141125;-73
2022/05/28 18:57:40;;;;;;;8.53;2.60;;;;;;;10.46;100.00;100232.56;4982788;59;1139126;-73
2022/05/28 19:02:46;;;;;;;2.40;1.10;;;;;;;10.40;100.00;100233.05;5010593;58;1139072;-73
2022/05/28 19:07:52;;;;;;;2.63;2.03;;;;;;;10.36;100.00;100238.73;5003398;58;1139439;-74
2022/05/28 19:12:58;;;;;;;4.63;2.07;;;;;;;10.31;100.00;100243.06;5023487;58;1138981;-73
2022/05/28 19:18:03;;;;;;;6.77;2.37;;;;;;;10.34;100.00;100242.83;5182333;56;1139000;-70
2022/05/28 19:23:09;;;;;;;5.50;2.47;;;;;;;10.30;100.00;100241.38;5161878;56;1139044;-75
2022/05/28 19:28:15;;;;;;;2.40;2.00;;;;;;;10.30;100.00;100245.34;5194117;56;1139129;-73
2022/05/28 19:33:30;;;;;;;5.10;2.17;;;;;;;10.30;100.00;100245.34;5174998;56;1139318;-69
2022/05/28 19:38:35;;;;;;;1.50;1.33;;;;;;;10.30;100.00;100239.22;5164008;56;1139366;-70
2022/05/28 19:43:41;;;;;;;6.10;2.57;;;;;;;10.31;100.00;100239.58;5219209;56;1138897;-73
2022/05/28 19:48:48;;;;;;;2.23;1.40;;;;;;;10.34;100.00;100247.27;5218198;56;1139119;-74
2022/05/28 19:53:54;;;;;;;2.20;1.40;;;;;;;10.29;100.00;100251.59;5177902;56;1139031;-70
2022/05/28 19:59:00;;;;;;;2.90;1.60;;;;;;;10.29;100.00;100249.43;5196114;56;1139111;-71
2022/05/28 20:04:06;;;;;;;14.23;5.73;;;;;;;10.24;100.00;100257.72;5219026;56;1137032;-72
2022/05/28 20:09:12;;;;;;;2.67;2.13;;;;;;;10.24;100.00;100259.05;5219178;56;1139053;-71
2022/05/28 20:14:17;;;;;;;3.23;1.20;;;;;;;10.23;100.00;100259.52;5238915;56;21145;-72
2022/05/28 20:19:23;;;;;;;6.87;2.07;;;;;;;10.27;100.00;100257.96;5206169;56;1136886;-71
2022/05/28 20:24:29;;;;;;;11.43;4.93;;;;;;;10.30;100.00;100263.84;5185624;56;1141097;-71
2022/05/28 20:29:35;;;;;;;11.07;3.83;;;;;;;10.31;100.00;100262.89;5201071;56;1143177;-73
2022/05/28 20:34:43;;;;;;;13.60;4.43;;;;;;;10.32;100.00;100261.92;5187397;56;1143129;-70
2022/05/28 20:39:50;;;;;;;11.20;4.53;;;;;;;10.33;100.00;100260.97;5218957;56;1143206;-74
2022/05/28 20:44:56;;;;;;;23.03;9.60;;;;;;;10.33;100.00;100257.48;5217330;56;1143249;-72
2022/05/28 20:50:01;;;;;;;7.92;2.70;;;;;;;10.29;100.00;100261.33;5194275;56;1143352;-71
2022/05/28 20:55:08;;;;;;;3.43;1.53;;;;;;;10.28;100.00;100267.09;5193281;56;1141094;-72
2022/05/28 21:00:15;;;;;;;2.73;1.20;;;;;;;10.27;100.00;100267.22;5187859;56;1140859;-71
2022/05/28 21:05:24;;;;;;;5.80;2.60;;;;;;;10.27;100.00;100267.22;5195022;56;1140893;-69
2022/05/28 21:10:30;;;;;;;11.83;3.10;;;;;;;10.27;100.00;100264.09;5167949;56;1141228;-69
2022/05/28 21:15:36;;;;;;;3.70;1.80;;;;;;;10.27;100.00;100265.89;5192420;56;1143217;-71
2022/05/28 21:20:42;;;;;;;5.30;1.37;;;;;;;10.23;100.00;100260.84;5192327;56;1141128;-72
2022/05/28 21:29:49;;;;;;;5.78;2.20;;;;;;;10.20;100.00;100259.80;5197913;56;1141152;-73
2022/05/28 21:30:55;;;;;;;6.27;2.40;;;;;;;10.19;100.00;100259.91;5187486;56;1141143;-73
2022/05/28 21:36:01;;;;;;;3.80;1.53;;;;;;;10.20;100.00;100261.12;5215821;56;1141335;-68
2022/05/28 21:41:07;;;;;;;4.30;1.30;;;;;;;10.21;100.00;100260.64;5221000;56;1141102;-70
2022/05/28 21:46:12;;;;;;;4.00;1.50;;;;;;;10.21;100.00;100258.84;5221303;56;1141317;-70
2022/05/28 21:51:21;;;;;;;4.63;2.00;;;;;;;10.20;100.00;100254.99;5221990;56;1141104;-74
2022/05/28 21:56:27;;;;;;;9.63;2.90;;;;;;;10.19;100.00;100264.72;5222023;56;1141288;-72
2022/05/28 22:01:34;;;;;;;4.33;2.10;;;;;;;10.19;100.00;100262.08;5222061;56;1141523;-72
2022/05/28 22:06:39;;;;;;;5.03;2.50;;;;;;;10.17;100.00;100263.13;5221874;56;1141241;-72
2022/05/28 22:11:45;;;;;;;10.40;3.10;;;;;;;10.19;100.00;100265.20;5208526;56;1141096;-71
2022/05/28 22:16:51;;;;;;;5.87;2.13;;;;;;;10.20;100.00;100269.05;5208293;56;1143156;-72
2022/05/28 22:21:57;;;;;;;8.60;2.87;;;;;;;10.20;100.00;100266.88;5204753;56;1141360;-69
2022/05/28 22:27:03;;;;;;;4.92;2.83;;;;;;;10.19;100.00;100261.23;5203742;56;1141115;-71
2022/05/28 22:32:10;;;;;;;8.17;2.50;;;;;;;10.17;100.00;100257.84;5220499;56;1141211;-72
2022/05/28 22:37:15;;;;;;;5.90;1.80;;;;;;;10.18;100.00;100266.12;5185410;56;1141089;-73
2022/05/28 22:42:21;;;;;;;4.87;1.67;;;;;;;10.17;100.00;100257.36;5211978;56;1141243;-70
2022/05/28 22:47:27;;;;;;;9.40;2.60;;;;;;;10.18;100.00;100246.31;5188477;56;1141086;-71
2022/05/28 22:52:33;;;;;;;6.17;1.63;;;;;;;10.17;100.00;100252.08;5216583;56;1141051;-69
2022/05/28 22:57:39;;;;;;;6.67;2.07;;;;;;;10.12;100.00;100241.02;5219291;56;1141181;-72
2022/05/28 23:02:46;;;;;;;13.00;3.20;;;;;;;10.10;100.00;100245.59;5219365;56;1141094;-72
2022/05/28 23:07:54;;;;;;;8.00;1.90;;;;;;;10.11;100.00;100247.75;5218548;56;1143348;-70
2022/05/28 23:13:00;;;;;;;4.80;2.35;;;;;;;10.08;100.00;100242.22;5207867;56;1141213;-71
2022/05/28 23:18:06;;;;;;;9.50;3.10;;;;;;;10.11;100.00;100248.59;5208588;56;1141246;-68
2022/05/28 23:28:36;;;;;;;;;;;;;;;10.10;100.00;100248.23;5139231;57;1141070;-71
2022/05/28 23:33:46;;;;;;;8.77;2.50;;;;;;;10.12;100.00;100246.78;5160473;56;976383;-69
2022/05/28 23:38:52;;;;;;;8.05;2.77;;;;;;;10.13;100.00;100239.22;5211215;56;1136993;-70
2022/05/28 23:43:58;;;;;;;4.70;1.60;;;;;;;10.13;100.00;100234.78;5211770;56;1139332;-71
2022/05/28 23:49:23;;;;;;;9.63;1.80;;;;;;;10.15;100.00;100228.89;5211327;56;1139219;-70